sensor_id;sensor_type;location;lat;lon;timestamp;temperature;humidity
15926;DHT22;8062;53.882;10.642;2023-05-10T00:00:16;13.10;90.00
15926;DHT22;8062;53.882;10.642;2023-05-10T00:01:36;13.00;90.30
15926;DHT22;8062;53.882;10.642;2023-05-10T00:02:56;13.00;90.40
15926;DHT22;8062;53.882;10.642;2023-05-10T00:04:15;13.10;90.20
15926;DHT22;8062;53.882;10.642;2023-05-10T00:05:35;13.00;90.40
15926;DHT22;8062;53.882;10.642;2023-05-10T00:06:54;12.90;90.60
15926;DHT22;8062;53.882;10.642;2023-05-10T00:08:13;12.80;90.50
15926;DHT22;8062;53.882;10.642;2023-05-10T00:09:33;12.90;90.70
15926;DHT22;8062;53.882;10.642;2023-05-10T00:10:53;12.90;90.40
15926;DHT22;8062;53.882;10.642;2023-05-10T00:12:12;12.80;90.30
15926;DHT22;8062;53.882;10.642;2023-05-10T00:13:32;12.80;90.70
15926;DHT22;8062;53.882;10.642;2023-05-10T00:14:52;12.80;90.80
15926;DHT22;8062;53.882;10.642;2023-05-10T00:16:11;12.70;90.80
15926;DHT22;8062;53.882;10.642;2023-05-10T00:17:32;12.70;90.70
15926;DHT22;8062;53.882;10.642;2023-05-10T00:18:51;12.70;90.60
15926;DHT22;8062;53.882;10.642;2023-05-10T00:20:11;12.70;90.80
15926;DHT22;8062;53.882;10.642;2023-05-10T00:21:30;12.60;90.80
15926;DHT22;8062;53.882;10.642;2023-05-10T00:22:51;12.70;90.70
15926;DHT22;8062;53.882;10.642;2023-05-10T00:24:11;12.60;90.80
15926;DHT22;8062;53.882;10.642;2023-05-10T00:25:31;12.70;91.00
15926;DHT22;8062;53.882;10.642;2023-05-10T00:26:50;12.60;91.50
15926;DHT22;8062;53.882;10.642;2023-05-10T00:28:10;12.60;91.20
15926;DHT22;8062;53.882;10.642;2023-05-10T00:29:30;12.50;91.10
15926;DHT22;8062;53.882;10.642;2023-05-10T00:30:50;12.50;91.50
15926;DHT22;8062;53.882;10.642;2023-05-10T00:32:10;12.40;91.50
15926;DHT22;8062;53.882;10.642;2023-05-10T00:33:29;12.50;91.60
15926;DHT22;8062;53.882;10.642;2023-05-10T00:34:49;12.40;91.30
15926;DHT22;8062;53.882;10.642;2023-05-10T00:36:09;12.40;91.40
15926;DHT22;8062;53.882;10.642;2023-05-10T00:37:29;12.30;91.80
15926;DHT22;8062;53.882;10.642;2023-05-10T00:38:49;12.40;91.50
15926;DHT22;8062;53.882;10.642;2023-05-10T00:40:08;12.30;91.60
15926;DHT22;8062;53.882;10.642;2023-05-10T00:41:28;12.30;92.30
15926;DHT22;8062;53.882;10.642;2023-05-10T00:42:48;12.30;91.70
15926;DHT22;8062;53.882;10.642;2023-05-10T00:44:07;12.30;91.60
15926;DHT22;8062;53.882;10.642;2023-05-10T00:45:27;12.30;91.70
15926;DHT22;8062;53.882;10.642;2023-05-10T00:46:48;12.30;91.90
15926;DHT22;8062;53.882;10.642;2023-05-10T00:48:08;12.20;92.50
15926;DHT22;8062;53.882;10.642;2023-05-10T00:49:28;12.20;92.00
15926;DHT22;8062;53.882;10.642;2023-05-10T00:50:48;12.10;91.90
15926;DHT22;8062;53.882;10.642;2023-05-10T00:52:08;12.20;92.10
15926;DHT22;8062;53.882;10.642;2023-05-10T00:53:30;12.20;92.00
15926;DHT22;8062;53.882;10.642;2023-05-10T00:54:52;12.20;92.30
15926;DHT22;8062;53.882;10.642;2023-05-10T00:56:11;12.20;92.10
15926;DHT22;8062;53.882;10.642;2023-05-10T00:57:31;12.20;92.20
15926;DHT22;8062;53.882;10.642;2023-05-10T00:58:51;12.10;92.10
15926;DHT22;8062;53.882;10.642;2023-05-10T01:00:12;12.10;92.30
15926;DHT22;8062;53.882;10.642;2023-05-10T01:01:32;12.10;92.00
15926;DHT22;8062;53.882;10.642;2023-05-10T01:02:53;12.00;92.30
15926;DHT22;8062;53.882;10.642;2023-05-10T01:04:14;12.00;92.70
15926;DHT22;8062;53.882;10.642;2023-05-10T01:05:33;12.00;92.70
15926;DHT22;8062;53.882;10.642;2023-05-10T01:06:53;12.00;92.30
15926;DHT22;8062;53.882;10.642;2023-05-10T01:08:13;12.10;92.50
15926;DHT22;8062;53.882;10.642;2023-05-10T01:09:33;12.00;92.70
15926;DHT22;8062;53.882;10.642;2023-05-10T01:10:53;12.00;92.40
15926;DHT22;8062;53.882;10.642;2023-05-10T01:12:13;12.00;92.50
15926;DHT22;8062;53.882;10.642;2023-05-10T01:13:35;12.00;92.50
15926;DHT22;8062;53.882;10.642;2023-05-10T01:14:55;12.00;92.30
15926;DHT22;8062;53.882;10.642;2023-05-10T01:16:15;12.10;92.30
15926;DHT22;8062;53.882;10.642;2023-05-10T01:17:39;12.10;92.60
15926;DHT22;8062;53.882;10.642;2023-05-10T01:19:00;12.00;92.90
15926;DHT22;8062;53.882;10.642;2023-05-10T01:20:20;12.10;92.30
15926;DHT22;8062;53.882;10.642;2023-05-10T01:23:36;12.10;92.60
15926;DHT22;8062;53.882;10.642;2023-05-10T01:25:23;12.10;92.30
15926;DHT22;8062;53.882;10.642;2023-05-10T01:27:01;12.10;92.60
15926;DHT22;8062;53.882;10.642;2023-05-10T01:30:47;12.00;92.90
15926;DHT22;8062;53.882;10.642;2023-05-10T01:35:37;12.00;92.60
15926;DHT22;8062;53.882;10.642;2023-05-10T01:37:07;11.90;92.70
15926;DHT22;8062;53.882;10.642;2023-05-10T01:38:49;11.90;92.90
15926;DHT22;8062;53.882;10.642;2023-05-10T01:40:19;12.00;92.70
15926;DHT22;8062;53.882;10.642;2023-05-10T01:42:08;12.00;92.60
15926;DHT22;8062;53.882;10.642;2023-05-10T01:43:31;12.00;92.80
15926;DHT22;8062;53.882;10.642;2023-05-10T01:45:27;12.00;92.50
15926;DHT22;8062;53.882;10.642;2023-05-10T01:47:01;12.00;92.70
15926;DHT22;8062;53.882;10.642;2023-05-10T01:48:24;12.10;92.60
15926;DHT22;8062;53.882;10.642;2023-05-10T01:49:51;12.10;92.50
15926;DHT22;8062;53.882;10.642;2023-05-10T01:51:12;12.10;92.50
15926;DHT22;8062;53.882;10.642;2023-05-10T01:52:40;12.20;92.50
15926;DHT22;8062;53.882;10.642;2023-05-10T01:54:04;12.10;92.80
15926;DHT22;8062;53.882;10.642;2023-05-10T01:55:35;12.10;92.70
15926;DHT22;8062;53.882;10.642;2023-05-10T01:57:04;12.10;92.70
15926;DHT22;8062;53.882;10.642;2023-05-10T01:58:30;12.00;92.80
15926;DHT22;8062;53.882;10.642;2023-05-10T01:59:52;12.00;92.80
15926;DHT22;8062;53.882;10.642;2023-05-10T02:01:12;12.00;92.80
15926;DHT22;8062;53.882;10.642;2023-05-10T02:02:35;12.00;93.10
15926;DHT22;8062;53.882;10.642;2023-05-10T02:03:57;12.00;93.00
15926;DHT22;8062;53.882;10.642;2023-05-10T02:05:17;12.00;92.90
15926;DHT22;8062;53.882;10.642;2023-05-10T02:06:39;12.00;92.90
15926;DHT22;8062;53.882;10.642;2023-05-10T02:08:01;12.00;93.30
15926;DHT22;8062;53.882;10.642;2023-05-10T02:09:23;12.00;93.10
15926;DHT22;8062;53.882;10.642;2023-05-10T02:10:45;12.00;92.90
15926;DHT22;8062;53.882;10.642;2023-05-10T02:12:06;12.00;93.10
15926;DHT22;8062;53.882;10.642;2023-05-10T02:13:29;12.00;92.80
15926;DHT22;8062;53.882;10.642;2023-05-10T02:14:52;11.90;93.30
15926;DHT22;8062;53.882;10.642;2023-05-10T02:16:13;11.90;93.80
15926;DHT22;8062;53.882;10.642;2023-05-10T02:17:34;11.90;93.60
15926;DHT22;8062;53.882;10.642;2023-05-10T02:18:56;11.80;93.50
15926;DHT22;8062;53.882;10.642;2023-05-10T02:20:18;11.80;93.40
15926;DHT22;8062;53.882;10.642;2023-05-10T02:21:39;11.80;93.50
15926;DHT22;8062;53.882;10.642;2023-05-10T02:22:59;11.80;93.50
15926;DHT22;8062;53.882;10.642;2023-05-10T02:24:21;11.80;93.90
15926;DHT22;8062;53.882;10.642;2023-05-10T02:25:43;11.90;93.50
15926;DHT22;8062;53.882;10.642;2023-05-10T02:27:03;11.80;93.60
15926;DHT22;8062;53.882;10.642;2023-05-10T02:28:24;11.80;93.70
15926;DHT22;8062;53.882;10.642;2023-05-10T02:29:45;11.80;93.70
15926;DHT22;8062;53.882;10.642;2023-05-10T02:31:06;11.80;93.70
15926;DHT22;8062;53.882;10.642;2023-05-10T02:32:27;11.80;93.90
15926;DHT22;8062;53.882;10.642;2023-05-10T02:33:48;11.70;93.70
15926;DHT22;8062;53.882;10.642;2023-05-10T02:35:09;11.80;93.70
15926;DHT22;8062;53.882;10.642;2023-05-10T02:36:30;11.80;93.80
15926;DHT22;8062;53.882;10.642;2023-05-10T02:37:52;11.80;93.50
15926;DHT22;8062;53.882;10.642;2023-05-10T02:39:12;11.90;93.90
15926;DHT22;8062;53.882;10.642;2023-05-10T02:40:33;11.80;93.70
15926;DHT22;8062;53.882;10.642;2023-05-10T02:41:54;11.80;93.70
15926;DHT22;8062;53.882;10.642;2023-05-10T02:43:17;11.80;93.70
15926;DHT22;8062;53.882;10.642;2023-05-10T02:44:38;11.80;93.80
15926;DHT22;8062;53.882;10.642;2023-05-10T02:46:00;11.80;94.00
15926;DHT22;8062;53.882;10.642;2023-05-10T02:47:20;11.70;94.10
15926;DHT22;8062;53.882;10.642;2023-05-10T02:48:41;11.70;94.00
15926;DHT22;8062;53.882;10.642;2023-05-10T02:50:01;11.70;94.00
15926;DHT22;8062;53.882;10.642;2023-05-10T02:51:25;11.70;93.90
15926;DHT22;8062;53.882;10.642;2023-05-10T02:52:50;11.70;94.00
15926;DHT22;8062;53.882;10.642;2023-05-10T02:54:13;11.70;94.00
15926;DHT22;8062;53.882;10.642;2023-05-10T02:55:37;11.70;94.00
15926;DHT22;8062;53.882;10.642;2023-05-10T02:57:00;11.70;94.30
15926;DHT22;8062;53.882;10.642;2023-05-10T02:58:21;11.70;94.20
15926;DHT22;8062;53.882;10.642;2023-05-10T02:59:41;11.60;94.30
15926;DHT22;8062;53.882;10.642;2023-05-10T03:01:02;11.60;94.40
15926;DHT22;8062;53.882;10.642;2023-05-10T03:02:21;11.60;94.30
15926;DHT22;8062;53.882;10.642;2023-05-10T03:03:41;11.60;94.40
15926;DHT22;8062;53.882;10.642;2023-05-10T03:05:01;11.50;94.50
15926;DHT22;8062;53.882;10.642;2023-05-10T03:06:20;11.60;94.30
15926;DHT22;8062;53.882;10.642;2023-05-10T03:07:40;11.60;94.40
15926;DHT22;8062;53.882;10.642;2023-05-10T03:08:59;11.60;94.30
15926;DHT22;8062;53.882;10.642;2023-05-10T03:10:26;11.60;94.60
15926;DHT22;8062;53.882;10.642;2023-05-10T03:12:04;11.50;94.60
15926;DHT22;8062;53.882;10.642;2023-05-10T03:13:33;11.50;94.80
15926;DHT22;8062;53.882;10.642;2023-05-10T03:18:21;11.40;94.80
15926;DHT22;8062;53.882;10.642;2023-05-10T03:20:15;11.40;94.90
15926;DHT22;8062;53.882;10.642;2023-05-10T03:21:32;11.50;94.80
15926;DHT22;8062;53.882;10.642;2023-05-10T03:23:02;11.50;95.10
15926;DHT22;8062;53.882;10.642;2023-05-10T03:24:25;11.50;95.00
15926;DHT22;8062;53.882;10.642;2023-05-10T03:25:48;11.50;95.00
15926;DHT22;8062;53.882;10.642;2023-05-10T03:27:08;11.40;94.90
15926;DHT22;8062;53.882;10.642;2023-05-10T03:28:29;11.40;95.20
15926;DHT22;8062;53.882;10.642;2023-05-10T03:29:50;11.30;95.20
15926;DHT22;8062;53.882;10.642;2023-05-10T03:31:10;11.30;95.20
15926;DHT22;8062;53.882;10.642;2023-05-10T03:32:31;11.40;95.10
15926;DHT22;8062;53.882;10.642;2023-05-10T03:33:53;11.40;95.20
15926;DHT22;8062;53.882;10.642;2023-05-10T03:35:17;11.40;95.00
15926;DHT22;8062;53.882;10.642;2023-05-10T03:36:37;11.30;95.10
15926;DHT22;8062;53.882;10.642;2023-05-10T03:37:56;11.30;95.50
15926;DHT22;8062;53.882;10.642;2023-05-10T03:39:16;11.30;95.40
15926;DHT22;8062;53.882;10.642;2023-05-10T03:40:37;11.20;95.50
15926;DHT22;8062;53.882;10.642;2023-05-10T03:41:56;11.20;95.70
15926;DHT22;8062;53.882;10.642;2023-05-10T03:43:16;11.20;95.80
15926;DHT22;8062;53.882;10.642;2023-05-10T03:44:35;11.10;96.00
15926;DHT22;8062;53.882;10.642;2023-05-10T03:45:55;11.10;95.90
15926;DHT22;8062;53.882;10.642;2023-05-10T03:47:15;11.10;96.30
15926;DHT22;8062;53.882;10.642;2023-05-10T03:48:35;11.20;95.90
15926;DHT22;8062;53.882;10.642;2023-05-10T03:49:54;11.20;96.20
15926;DHT22;8062;53.882;10.642;2023-05-10T03:51:14;11.20;96.20
15926;DHT22;8062;53.882;10.642;2023-05-10T03:52:33;11.20;96.30
15926;DHT22;8062;53.882;10.642;2023-05-10T03:53:54;11.10;96.20
15926;DHT22;8062;53.882;10.642;2023-05-10T03:55:14;11.10;96.30
15926;DHT22;8062;53.882;10.642;2023-05-10T03:56:34;11.10;96.70
15926;DHT22;8062;53.882;10.642;2023-05-10T03:57:54;11.00;96.60
15926;DHT22;8062;53.882;10.642;2023-05-10T03:59:15;11.10;96.60
15926;DHT22;8062;53.882;10.642;2023-05-10T04:00:35;11.10;96.60
15926;DHT22;8062;53.882;10.642;2023-05-10T04:01:55;11.10;96.30
15926;DHT22;8062;53.882;10.642;2023-05-10T04:03:14;11.20;96.30
15926;DHT22;8062;53.882;10.642;2023-05-10T04:04:34;11.20;96.40
15926;DHT22;8062;53.882;10.642;2023-05-10T04:06:02;11.20;96.40
15926;DHT22;8062;53.882;10.642;2023-05-10T04:07:22;11.20;96.20
15926;DHT22;8062;53.882;10.642;2023-05-10T04:08:42;11.20;96.40
15926;DHT22;8062;53.882;10.642;2023-05-10T04:10:01;11.20;96.20
15926;DHT22;8062;53.882;10.642;2023-05-10T04:11:21;11.30;96.20
15926;DHT22;8062;53.882;10.642;2023-05-10T04:12:41;11.30;96.30
15926;DHT22;8062;53.882;10.642;2023-05-10T04:14:01;11.30;96.80
15926;DHT22;8062;53.882;10.642;2023-05-10T04:15:20;11.30;96.60
15926;DHT22;8062;53.882;10.642;2023-05-10T04:16:39;11.30;96.30
15926;DHT22;8062;53.882;10.642;2023-05-10T04:17:59;11.30;96.50
15926;DHT22;8062;53.882;10.642;2023-05-10T04:19:19;11.20;96.70
15926;DHT22;8062;53.882;10.642;2023-05-10T04:20:38;11.30;96.90
15926;DHT22;8062;53.882;10.642;2023-05-10T04:21:58;11.30;96.70
15926;DHT22;8062;53.882;10.642;2023-05-10T04:23:18;11.30;96.40
15926;DHT22;8062;53.882;10.642;2023-05-10T04:24:38;11.40;96.30
15926;DHT22;8062;53.882;10.642;2023-05-10T04:26:01;11.40;96.70
15926;DHT22;8062;53.882;10.642;2023-05-10T04:27:21;11.50;96.30
15926;DHT22;8062;53.882;10.642;2023-05-10T04:28:40;11.50;96.50
15926;DHT22;8062;53.882;10.642;2023-05-10T04:30:00;11.50;96.60
15926;DHT22;8062;53.882;10.642;2023-05-10T04:31:19;11.60;96.00
15926;DHT22;8062;53.882;10.642;2023-05-10T04:32:39;11.50;96.00
15926;DHT22;8062;53.882;10.642;2023-05-10T04:33:58;11.50;96.10
15926;DHT22;8062;53.882;10.642;2023-05-10T04:35:18;11.60;96.40
15926;DHT22;8062;53.882;10.642;2023-05-10T04:36:37;11.60;96.30
15926;DHT22;8062;53.882;10.642;2023-05-10T04:37:57;11.60;95.90
15926;DHT22;8062;53.882;10.642;2023-05-10T04:39:16;11.60;96.00
15926;DHT22;8062;53.882;10.642;2023-05-10T04:40:35;11.60;96.70
15926;DHT22;8062;53.882;10.642;2023-05-10T04:41:55;11.60;96.30
15926;DHT22;8062;53.882;10.642;2023-05-10T04:43:14;11.60;96.50
15926;DHT22;8062;53.882;10.642;2023-05-10T04:44:34;11.60;96.40
15926;DHT22;8062;53.882;10.642;2023-05-10T04:45:56;11.70;96.70
15926;DHT22;8062;53.882;10.642;2023-05-10T04:47:16;11.70;96.40
15926;DHT22;8062;53.882;10.642;2023-05-10T04:48:35;11.80;95.90
15926;DHT22;8062;53.882;10.642;2023-05-10T04:49:55;11.80;96.00
15926;DHT22;8062;53.882;10.642;2023-05-10T04:51:14;11.80;96.10
15926;DHT22;8062;53.882;10.642;2023-05-10T04:52:34;11.90;95.90
15926;DHT22;8062;53.882;10.642;2023-05-10T04:53:53;11.90;95.70
15926;DHT22;8062;53.882;10.642;2023-05-10T04:55:13;12.00;95.60
15926;DHT22;8062;53.882;10.642;2023-05-10T04:56:33;12.10;95.50
15926;DHT22;8062;53.882;10.642;2023-05-10T04:57:53;12.10;95.70
15926;DHT22;8062;53.882;10.642;2023-05-10T04:59:14;12.10;96.00
15926;DHT22;8062;53.882;10.642;2023-05-10T05:00:33;12.10;96.30
15926;DHT22;8062;53.882;10.642;2023-05-10T05:01:53;12.10;95.60
15926;DHT22;8062;53.882;10.642;2023-05-10T05:03:13;12.20;95.80
15926;DHT22;8062;53.882;10.642;2023-05-10T05:04:32;12.20;95.60
15926;DHT22;8062;53.882;10.642;2023-05-10T05:05:51;12.30;95.50
15926;DHT22;8062;53.882;10.642;2023-05-10T05:07:11;12.40;95.50
15926;DHT22;8062;53.882;10.642;2023-05-10T05:08:30;12.40;95.30
15926;DHT22;8062;53.882;10.642;2023-05-10T05:09:50;12.40;95.50
15926;DHT22;8062;53.882;10.642;2023-05-10T05:11:09;12.50;95.00
15926;DHT22;8062;53.882;10.642;2023-05-10T05:12:29;12.60;95.00
15926;DHT22;8062;53.882;10.642;2023-05-10T05:13:48;12.60;95.00
15926;DHT22;8062;53.882;10.642;2023-05-10T05:15:08;12.50;95.60
15926;DHT22;8062;53.882;10.642;2023-05-10T05:16:30;12.50;95.50
15926;DHT22;8062;53.882;10.642;2023-05-10T05:17:50;12.50;95.00
15926;DHT22;8062;53.882;10.642;2023-05-10T05:19:09;12.60;94.90
15926;DHT22;8062;53.882;10.642;2023-05-10T05:20:32;12.60;94.30
15926;DHT22;8062;53.882;10.642;2023-05-10T05:21:52;12.60;94.90
15926;DHT22;8062;53.882;10.642;2023-05-10T05:23:11;12.70;95.50
15926;DHT22;8062;53.882;10.642;2023-05-10T05:24:35;12.60;94.90
15926;DHT22;8062;53.882;10.642;2023-05-10T05:25:55;12.70;95.00
15926;DHT22;8062;53.882;10.642;2023-05-10T05:27:14;12.70;95.00
15926;DHT22;8062;53.882;10.642;2023-05-10T05:28:34;12.70;94.50
15926;DHT22;8062;53.882;10.642;2023-05-10T05:29:56;12.80;94.60
15926;DHT22;8062;53.882;10.642;2023-05-10T05:31:16;12.80;94.90
15926;DHT22;8062;53.882;10.642;2023-05-10T05:32:37;12.90;94.40
15926;DHT22;8062;53.882;10.642;2023-05-10T05:33:56;12.80;94.70
15926;DHT22;8062;53.882;10.642;2023-05-10T05:35:15;12.80;94.90
15926;DHT22;8062;53.882;10.642;2023-05-10T05:36:38;12.90;94.60
15926;DHT22;8062;53.882;10.642;2023-05-10T05:37:57;12.90;94.60
15926;DHT22;8062;53.882;10.642;2023-05-10T05:39:17;13.00;94.40
15926;DHT22;8062;53.882;10.642;2023-05-10T05:40:36;13.10;94.30
15926;DHT22;8062;53.882;10.642;2023-05-10T05:41:56;13.10;95.10
15926;DHT22;8062;53.882;10.642;2023-05-10T05:43:15;13.20;94.50
15926;DHT22;8062;53.882;10.642;2023-05-10T05:44:35;13.30;94.10
15926;DHT22;8062;53.882;10.642;2023-05-10T05:45:55;13.30;93.70
15926;DHT22;8062;53.882;10.642;2023-05-10T05:47:17;13.30;94.20
15926;DHT22;8062;53.882;10.642;2023-05-10T05:48:36;13.40;93.60
15926;DHT22;8062;53.882;10.642;2023-05-10T05:49:56;13.40;93.90
15926;DHT22;8062;53.882;10.642;2023-05-10T05:51:15;13.50;93.30
15926;DHT22;8062;53.882;10.642;2023-05-10T05:52:35;13.50;93.40
15926;DHT22;8062;53.882;10.642;2023-05-10T05:53:55;13.60;93.40
15926;DHT22;8062;53.882;10.642;2023-05-10T05:55:14;13.70;93.10
15926;DHT22;8062;53.882;10.642;2023-05-10T05:56:34;13.80;93.30
15926;DHT22;8062;53.882;10.642;2023-05-10T05:57:53;13.90;92.90
15926;DHT22;8062;53.882;10.642;2023-05-10T05:59:13;14.10;93.00
15926;DHT22;8062;53.882;10.642;2023-05-10T06:00:33;14.20;92.40
15926;DHT22;8062;53.882;10.642;2023-05-10T06:01:52;14.20;92.90
15926;DHT22;8062;53.882;10.642;2023-05-10T06:03:12;14.40;92.80
15926;DHT22;8062;53.882;10.642;2023-05-10T06:04:31;14.40;92.10
15926;DHT22;8062;53.882;10.642;2023-05-10T06:05:51;14.40;92.20
15926;DHT22;8062;53.882;10.642;2023-05-10T06:07:10;14.50;92.10
15926;DHT22;8062;53.882;10.642;2023-05-10T06:08:30;14.50;92.10
15926;DHT22;8062;53.882;10.642;2023-05-10T06:09:50;14.50;91.90
15926;DHT22;8062;53.882;10.642;2023-05-10T06:11:09;14.50;92.20
15926;DHT22;8062;53.882;10.642;2023-05-10T06:12:28;14.60;91.90
15926;DHT22;8062;53.882;10.642;2023-05-10T06:13:48;14.80;91.80
15926;DHT22;8062;53.882;10.642;2023-05-10T06:15:08;15.00;90.90
15926;DHT22;8062;53.882;10.642;2023-05-10T06:16:27;15.10;91.20
15926;DHT22;8062;53.882;10.642;2023-05-10T06:17:47;15.30;91.20
15926;DHT22;8062;53.882;10.642;2023-05-10T06:19:08;15.30;91.80
15926;DHT22;8062;53.882;10.642;2023-05-10T06:20:28;15.60;91.20
15926;DHT22;8062;53.882;10.642;2023-05-10T06:21:47;15.60;91.00
15926;DHT22;8062;53.882;10.642;2023-05-10T06:23:06;15.60;90.50
15926;DHT22;8062;53.882;10.642;2023-05-10T06:24:26;15.60;90.50
15926;DHT22;8062;53.882;10.642;2023-05-10T06:25:46;15.50;90.40
15926;DHT22;8062;53.882;10.642;2023-05-10T06:27:06;15.60;90.90
15926;DHT22;8062;53.882;10.642;2023-05-10T06:28:25;15.70;90.50
15926;DHT22;8062;53.882;10.642;2023-05-10T06:29:45;15.90;90.40
15926;DHT22;8062;53.882;10.642;2023-05-10T06:31:05;16.20;91.30
15926;DHT22;8062;53.882;10.642;2023-05-10T06:32:25;16.20;90.80
15926;DHT22;8062;53.882;10.642;2023-05-10T06:33:44;16.20;90.00
15926;DHT22;8062;53.882;10.642;2023-05-10T06:35:04;16.10;88.90
15926;DHT22;8062;53.882;10.642;2023-05-10T06:36:24;16.10;89.90
15926;DHT22;8062;53.882;10.642;2023-05-10T06:37:45;16.00;89.70
15926;DHT22;8062;53.882;10.642;2023-05-10T06:39:05;15.90;89.50
15926;DHT22;8062;53.882;10.642;2023-05-10T06:40:26;15.80;90.70
15926;DHT22;8062;53.882;10.642;2023-05-10T06:41:45;15.60;90.80
15926;DHT22;8062;53.882;10.642;2023-05-10T06:43:05;15.50;90.30
15926;DHT22;8062;53.882;10.642;2023-05-10T06:44:24;15.50;91.20
15926;DHT22;8062;53.882;10.642;2023-05-10T06:45:44;15.60;90.70
15926;DHT22;8062;53.882;10.642;2023-05-10T06:47:03;15.60;90.40
15926;DHT22;8062;53.882;10.642;2023-05-10T06:48:23;15.80;90.60
15926;DHT22;8062;53.882;10.642;2023-05-10T06:49:43;16.00;89.70
15926;DHT22;8062;53.882;10.642;2023-05-10T06:51:03;16.00;90.10
15926;DHT22;8062;53.882;10.642;2023-05-10T06:52:22;16.20;90.20
15926;DHT22;8062;53.882;10.642;2023-05-10T06:53:42;16.40;90.20
15926;DHT22;8062;53.882;10.642;2023-05-10T06:55:02;16.70;90.30
15926;DHT22;8062;53.882;10.642;2023-05-10T06:56:23;17.00;90.00
15926;DHT22;8062;53.882;10.642;2023-05-10T06:57:42;17.10;88.90
15926;DHT22;8062;53.882;10.642;2023-05-10T06:59:01;17.20;87.90
15926;DHT22;8062;53.882;10.642;2023-05-10T07:00:22;17.10;87.10
15926;DHT22;8062;53.882;10.642;2023-05-10T07:01:42;17.50;88.40
15926;DHT22;8062;53.882;10.642;2023-05-10T07:03:01;17.70;87.30
15926;DHT22;8062;53.882;10.642;2023-05-10T07:04:21;17.90;86.50
15926;DHT22;8062;53.882;10.642;2023-05-10T07:05:40;18.20;84.70
15926;DHT22;8062;53.882;10.642;2023-05-10T07:07:00;18.30;83.90
15926;DHT22;8062;53.882;10.642;2023-05-10T07:08:19;18.50;85.20
15926;DHT22;8062;53.882;10.642;2023-05-10T07:09:39;18.50;82.30
15926;DHT22;8062;53.882;10.642;2023-05-10T07:11:05;18.60;84.20
15926;DHT22;8062;53.882;10.642;2023-05-10T07:12:27;19.00;84.10
15926;DHT22;8062;53.882;10.642;2023-05-10T07:13:46;19.20;80.60
15926;DHT22;8062;53.882;10.642;2023-05-10T07:15:07;19.20;81.80
15926;DHT22;8062;53.882;10.642;2023-05-10T07:16:27;19.30;81.70
15926;DHT22;8062;53.882;10.642;2023-05-10T07:17:46;19.50;81.50
15926;DHT22;8062;53.882;10.642;2023-05-10T07:19:06;19.40;80.00
15926;DHT22;8062;53.882;10.642;2023-05-10T07:20:26;19.20;81.10
15926;DHT22;8062;53.882;10.642;2023-05-10T07:21:45;19.20;80.50
15926;DHT22;8062;53.882;10.642;2023-05-10T07:23:05;18.90;80.80
15926;DHT22;8062;53.882;10.642;2023-05-10T07:24:24;18.60;81.30
15926;DHT22;8062;53.882;10.642;2023-05-10T07:25:48;18.50;83.10
15926;DHT22;8062;53.882;10.642;2023-05-10T07:27:08;18.50;84.70
15926;DHT22;8062;53.882;10.642;2023-05-10T07:28:28;18.50;82.80
15926;DHT22;8062;53.882;10.642;2023-05-10T07:29:48;18.70;83.50
15926;DHT22;8062;53.882;10.642;2023-05-10T07:31:07;18.60;83.70
15926;DHT22;8062;53.882;10.642;2023-05-10T07:32:27;18.90;83.00
15926;DHT22;8062;53.882;10.642;2023-05-10T07:33:46;19.20;83.30
15926;DHT22;8062;53.882;10.642;2023-05-10T07:35:06;19.20;82.90
15926;DHT22;8062;53.882;10.642;2023-05-10T07:36:26;19.40;83.30
15926;DHT22;8062;53.882;10.642;2023-05-10T07:37:45;19.40;80.80
15926;DHT22;8062;53.882;10.642;2023-05-10T07:39:05;19.40;80.50
15926;DHT22;8062;53.882;10.642;2023-05-10T07:40:24;19.40;81.40
15926;DHT22;8062;53.882;10.642;2023-05-10T07:41:44;19.30;82.30
15926;DHT22;8062;53.882;10.642;2023-05-10T07:43:03;19.50;81.60
15926;DHT22;8062;53.882;10.642;2023-05-10T07:44:23;19.90;84.20
15926;DHT22;8062;53.882;10.642;2023-05-10T07:45:43;20.00;82.60
15926;DHT22;8062;53.882;10.642;2023-05-10T07:47:02;20.00;79.80
15926;DHT22;8062;53.882;10.642;2023-05-10T07:48:22;20.30;80.70
15926;DHT22;8062;53.882;10.642;2023-05-10T07:49:41;20.40;80.60
15926;DHT22;8062;53.882;10.642;2023-05-10T07:51:01;20.80;81.50
15926;DHT22;8062;53.882;10.642;2023-05-10T07:52:21;20.90;80.50
15926;DHT22;8062;53.882;10.642;2023-05-10T07:53:40;21.00;78.10
15926;DHT22;8062;53.882;10.642;2023-05-10T07:55:00;21.10;80.50
15926;DHT22;8062;53.882;10.642;2023-05-10T07:56:27;21.50;82.50
15926;DHT22;8062;53.882;10.642;2023-05-10T07:57:48;22.00;84.40
15926;DHT22;8062;53.882;10.642;2023-05-10T07:59:08;22.40;83.70
15926;DHT22;8062;53.882;10.642;2023-05-10T08:00:27;22.30;77.40
15926;DHT22;8062;53.882;10.642;2023-05-10T08:01:47;22.30;79.40
15926;DHT22;8062;53.882;10.642;2023-05-10T08:03:07;22.30;81.50
15926;DHT22;8062;53.882;10.642;2023-05-10T08:04:26;22.40;77.20
15926;DHT22;8062;53.882;10.642;2023-05-10T08:05:46;22.60;78.60
15926;DHT22;8062;53.882;10.642;2023-05-10T08:07:05;22.70;79.20
15926;DHT22;8062;53.882;10.642;2023-05-10T08:08:25;22.80;76.20
15926;DHT22;8062;53.882;10.642;2023-05-10T08:09:44;22.60;76.50
15926;DHT22;8062;53.882;10.642;2023-05-10T08:11:04;22.50;76.00
15926;DHT22;8062;53.882;10.642;2023-05-10T08:12:24;22.30;80.30
15926;DHT22;8062;53.882;10.642;2023-05-10T08:13:44;22.40;80.00
15926;DHT22;8062;53.882;10.642;2023-05-10T08:15:05;22.40;77.00
15926;DHT22;8062;53.882;10.642;2023-05-10T08:16:24;22.50;81.10
15926;DHT22;8062;53.882;10.642;2023-05-10T08:17:44;22.30;79.20
15926;DHT22;8062;53.882;10.642;2023-05-10T08:19:03;21.90;76.00
15926;DHT22;8062;53.882;10.642;2023-05-10T08:20:23;22.00;79.50
15926;DHT22;8062;53.882;10.642;2023-05-10T08:21:43;21.90;77.60
15926;DHT22;8062;53.882;10.642;2023-05-10T08:23:03;21.90;77.80
15926;DHT22;8062;53.882;10.642;2023-05-10T08:24:22;21.50;77.60
15926;DHT22;8062;53.882;10.642;2023-05-10T08:25:42;21.40;79.50
15926;DHT22;8062;53.882;10.642;2023-05-10T08:27:02;21.20;78.50
15926;DHT22;8062;53.882;10.642;2023-05-10T08:28:21;21.20;80.30
15926;DHT22;8062;53.882;10.642;2023-05-10T08:29:41;21.10;79.60
15926;DHT22;8062;53.882;10.642;2023-05-10T08:31:00;20.90;79.50
15926;DHT22;8062;53.882;10.642;2023-05-10T08:32:20;20.80;79.30
15926;DHT22;8062;53.882;10.642;2023-05-10T08:33:39;20.70;80.10
15926;DHT22;8062;53.882;10.642;2023-05-10T08:34:59;20.70;83.70
15926;DHT22;8062;53.882;10.642;2023-05-10T08:36:18;21.00;82.30
15926;DHT22;8062;53.882;10.642;2023-05-10T08:37:41;21.20;88.00
15926;DHT22;8062;53.882;10.642;2023-05-10T08:39:01;21.40;81.60
15926;DHT22;8062;53.882;10.642;2023-05-10T08:40:20;21.60;80.20
15926;DHT22;8062;53.882;10.642;2023-05-10T08:41:40;21.80;81.50